Time;durP1;ratioP1;P1;durP2;ratioP2;P2;SDS_P1;SDS_P2;PMS_P1;PMS_P2;Temp;Humidity;BMP_temperature;BMP_pressure;BME280_temperature;BME280_humidity;BME280_pressure;Samples;Min_cycle;Max_cycle;Signal;HPM_P1;HPM_P2
2023/08/12 00:00:20;;;;;;;62.25;43.95;;;;;;;-147.65;100.00;57646.63;10471801;28;20041;-76
2023/08/12 00:05:21;;;;;;;58.92;40.33;;;;;;;-147.65;100.00;57646.63;10482586;28;20392;-76
2023/08/12 00:10:21;;;;;;;66.53;39.47;;;;;;;-147.65;100.00;57646.63;10467163;28;20044;-76
2023/08/12 00:15:22;;;;;;;76.72;50.72;;;;;;;-147.65;100.00;57646.63;10476178;28;20043;-76
2023/08/12 00:20:22;;;;;;;76.03;46.95;;;;;;;-147.65;100.00;57646.63;10466097;28;20051;-75
2023/08/12 00:25:23;;;;;;;64.03;41.45;;;;;;;-147.65;100.00;57646.63;10472577;28;20086;-76
2023/08/12 00:30:23;;;;;;;82.20;50.28;;;;;;;-147.65;100.00;57646.63;10482453;28;20024;-75
2023/08/12 00:35:24;;;;;;;77.47;47.43;;;;;;;-147.65;100.00;57646.63;10483535;28;20047;-76
2023/08/12 00:40:26;;;;;;;69.77;43.30;;;;;;;-147.65;100.00;57646.63;10473067;28;20392;-76
2023/08/12 00:45:27;;;;;;;64.90;41.70;;;;;;;-147.65;100.00;57646.63;10479150;28;20041;-75
2023/08/12 00:50:28;;;;;;;76.95;43.38;;;;;;;-147.65;100.00;57646.63;10440662;28;20037;-76
2023/08/12 00:55:28;;;;;;;57.77;38.13;;;;;;;-147.65;100.00;57646.63;10473091;28;20055;-76
2023/08/12 01:00:29;;;;;;;64.18;39.47;;;;;;;-147.65;100.00;57646.63;10418345;28;20071;-76
2023/08/12 01:05:30;;;;;;;99.60;46.35;;;;;;;-147.65;100.00;57646.63;10439207;28;20566;-78
2023/08/12 01:10:34;;;;;;;74.68;47.05;;;;;;;-147.65;100.00;57646.63;10422689;28;20063;-76
2023/08/12 01:15:34;;;;;;;78.63;47.22;;;;;;;-147.65;100.00;57646.63;10491004;28;20053;-76
2023/08/12 01:20:35;;;;;;;71.75;41.42;;;;;;;-147.65;100.00;57646.63;10463373;28;20147;-75
2023/08/12 01:25:35;;;;;;;63.20;41.00;;;;;;;-147.65;100.00;57646.63;10464333;28;20403;-76
2023/08/12 01:30:51;;;;;;;77.03;49.40;;;;;;;-147.65;100.00;57646.63;10463275;28;20036;-75
2023/08/12 01:36:00;;;;;;;68.35;46.13;;;;;;;-147.65;100.00;57646.63;10449493;28;20041;-75
2023/08/12 01:41:01;;;;;;;73.65;48.17;;;;;;;-147.65;100.00;57646.63;10434220;28;20127;-75
2023/08/12 01:46:01;;;;;;;68.95;44.33;;;;;;;-147.65;100.00;57646.63;10445155;28;20029;-75
2023/08/12 01:51:02;;;;;;;100.30;47.95;;;;;;;-147.65;100.00;57646.63;10394478;28;20184;-75
2023/08/12 01:56:03;;;;;;;82.33;56.63;;;;;;;-147.65;100.00;57646.63;10440058;28;20041;-76
2023/08/12 02:01:04;;;;;;;73.23;46.33;;;;;;;-147.65;100.00;57646.63;10439497;28;20033;-76
2023/08/12 02:06:04;;;;;;;141.95;59.65;;;;;;;-147.65;100.00;57646.63;10439328;28;20485;-76
2023/08/12 02:11:05;;;;;;;63.65;40.63;;;;;;;-147.65;100.00;57646.63;10441226;28;20045;-77
2023/08/12 02:16:05;;;;;;;65.67;45.73;;;;;;;-147.65;100.00;57646.63;10439461;28;20493;-77
2023/08/12 02:21:06;;;;;;;62.70;45.80;;;;;;;-147.65;100.00;57646.63;10443944;28;20070;-76
2023/08/12 02:26:06;;;;;;;66.88;45.78;;;;;;;-147.65;100.00;57646.63;10417636;28;20376;-77
2023/08/12 02:31:07;;;;;;;58.28;41.42;;;;;;;-147.65;100.00;57646.63;10434346;28;20435;-76
2023/08/12 02:36:08;;;;;;;63.28;44.05;;;;;;;-147.65;100.00;57646.63;10438678;28;20049;-76
2023/08/12 02:41:08;;;;;;;56.88;41.42;;;;;;;-147.65;100.00;57646.63;10420174;28;20053;-76
2023/08/12 02:46:08;;;;;;;57.30;40.13;;;;;;;-147.65;100.00;57646.63;10485233;28;20106;-76
2023/08/12 02:51:10;;;;;;;59.75;42.08;;;;;;;-147.65;100.00;57646.63;10488317;28;20089;-76
2023/08/12 02:56:10;;;;;;;75.40;46.33;;;;;;;-147.65;100.00;57646.63;10458852;28;20040;-76
2023/08/12 03:01:11;;;;;;;60.22;42.63;;;;;;;-147.65;100.00;57646.63;10484659;28;20096;-77
2023/08/12 03:06:11;;;;;;;54.70;37.65;;;;;;;-147.65;100.00;57646.63;10464528;28;20043;-77
2023/08/12 03:11:12;;;;;;;53.95;37.40;;;;;;;-147.65;100.00;57646.63;10484360;28;20056;-77
2023/08/12 03:16:15;;;;;;;54.70;39.05;;;;;;;-147.65;100.00;57646.63;10469506;28;20037;-77
2023/08/12 03:21:16;;;;;;;61.50;40.60;;;;;;;-147.65;100.00;57646.63;10485685;28;20033;-76
2023/08/12 03:26:16;;;;;;;52.08;38.17;;;;;;;-147.65;100.00;57646.63;10458227;28;20045;-76
2023/08/12 03:31:17;;;;;;;53.75;38.40;;;;;;;-147.65;100.00;57646.63;10469911;28;20488;-77
2023/08/12 03:36:17;;;;;;;47.17;34.47;;;;;;;-147.65;100.00;57646.63;10482724;28;20043;-77
2023/08/12 03:41:18;;;;;;;66.05;40.20;;;;;;;-147.65;100.00;57646.63;10459468;28;20043;-76
2023/08/12 03:46:18;;;;;;;162.95;52.70;;;;;;;-147.65;100.00;57646.63;10481520;28;20048;-76
2023/08/12 03:51:19;;;;;;;66.45;41.13;;;;;;;-147.65;100.00;57646.63;10481779;28;20412;-77
2023/08/12 03:56:19;;;;;;;55.67;39.17;;;;;;;-147.65;100.00;57646.63;10484989;28;20040;-77
2023/08/12 04:01:20;;;;;;;62.47;42.00;;;;;;;-147.65;100.00;57646.63;10485338;28;20037;-77
2023/08/12 04:06:20;;;;;;;44.63;33.50;;;;;;;-147.65;100.00;57646.63;10482755;28;20403;-77
2023/08/12 04:11:21;;;;;;;55.65;38.25;;;;;;;-147.65;100.00;57646.63;10483997;28;20069;-77
2023/08/12 04:16:22;;;;;;;56.83;38.78;;;;;;;-147.65;100.00;57646.63;10481398;28;20032;-77
2023/08/12 04:21:22;;;;;;;52.78;32.28;;;;;;;-147.65;100.00;57646.63;10467495;28;20694;-76
2023/08/12 04:26:23;;;;;;;67.60;38.05;;;;;;;-147.65;100.00;57646.63;10465334;28;20028;-77
2023/08/12 04:31:23;;;;;;;55.15;34.70;;;;;;;-147.65;100.00;57646.63;10456433;28;20404;-76
2023/08/12 04:36:24;;;;;;;58.08;39.50;;;;;;;-147.65;100.00;57646.63;10480259;28;20090;-76
2023/08/12 04:41:25;;;;;;;70.95;43.47;;;;;;;-147.65;100.00;57646.63;10454159;28;20045;-76
2023/08/12 04:46:26;;;;;;;55.05;33.80;;;;;;;-147.65;100.00;57646.63;10479048;28;20064;-76
2023/08/12 04:51:26;;;;;;;94.20;48.50;;;;;;;-147.65;100.00;57646.63;10472511;28;20493;-75
2023/08/12 04:56:28;;;;;;;117.82;70.40;;;;;;;-147.65;100.00;57646.63;10478872;28;20063;-76
2023/08/12 05:01:29;;;;;;;;;;;;;;;-147.65;100.00;57646.63;10463996;28;20036;-76
2023/08/12 05:06:29;;;;;;;97.25;57.00;;;;;;;-147.65;100.00;57646.63;10464724;28;19981;-75
2023/08/12 05:11:30;;;;;;;70.38;46.55;;;;;;;-147.65;100.00;57646.63;10475425;28;20041;-75
2023/08/12 05:16:30;;;;;;;65.82;38.15;;;;;;;-147.65;100.00;57646.63;10449533;28;20033;-75
2023/08/12 05:21:31;;;;;;;69.53;45.92;;;;;;;-147.65;100.00;57646.63;10471310;28;20040;-75
2023/08/12 05:26:33;;;;;;;91.70;57.00;;;;;;;-147.65;100.00;57646.63;10475088;28;20072;-76
2023/08/12 05:31:33;;;;;;;;;;;;;;;-147.65;100.00;57646.63;10493911;28;20039;-76
2023/08/12 05:36:35;;;;;;;99.87;59.37;;;;;;;-147.65;100.00;57646.63;10470887;28;19921;-74
2023/08/12 05:41:35;;;;;;;90.97;56.90;;;;;;;-147.65;100.00;57646.63;10464119;28;20283;-75
2023/08/12 05:46:36;;;;;;;100.63;60.72;;;;;;;-147.65;100.00;57646.63;10480337;28;20123;-77
2023/08/12 05:51:38;;;;;;;79.27;53.30;;;;;;;-147.65;100.00;57646.63;10482558;28;20043;-75
2023/08/12 05:56:38;;;;;;;66.85;44.15;;;;;;;-147.65;100.00;57646.63;10431448;28;20078;-76
2023/08/12 06:01:39;;;;;;;68.63;46.17;;;;;;;-147.65;100.00;57646.63;10473659;28;20062;-75
2023/08/12 06:06:39;;;;;;;62.83;36.97;;;;;;;-147.65;100.00;57646.63;10487636;28;20089;-76
2023/08/12 06:11:40;;;;;;;41.78;30.75;;;;;;;-147.65;100.00;57646.63;10489995;28;20124;-76
2023/08/12 06:16:40;;;;;;;36.10;24.27;;;;;;;-147.65;100.00;57646.63;10489517;28;20514;-77
2023/08/12 06:21:41;;;;;;;41.65;26.10;;;;;;;-147.65;100.00;57646.63;10489213;28;20033;-76
2023/08/12 06:26:41;;;;;;;33.17;24.05;;;;;;;-147.65;100.00;57646.63;10487157;28;20075;-76
2023/08/12 06:31:42;;;;;;;23.88;18.85;;;;;;;-147.65;100.00;57646.63;10454369;28;20040;-77
2023/08/12 06:36:42;;;;;;;27.75;20.88;;;;;;;-147.65;100.00;57646.63;10489185;28;20557;-76
2023/08/12 06:41:43;;;;;;;28.95;19.00;;;;;;;-147.65;100.00;57646.63;10461351;28;20048;-76
2023/08/12 06:46:43;;;;;;;22.13;17.55;;;;;;;-147.65;100.00;57646.63;10454677;28;20036;-76
2023/08/12 06:51:44;;;;;;;24.20;17.57;;;;;;;-147.65;100.00;57646.63;10488279;28;20507;-77
2023/08/12 06:56:45;;;;;;;21.92;16.20;;;;;;;-147.65;100.00;57646.63;10486153;28;20047;-77
2023/08/12 07:01:45;;;;;;;21.65;15.77;;;;;;;-147.65;100.00;57646.63;10469590;28;20127;-77
2023/08/12 07:06:46;;;;;;;20.47;14.07;;;;;;;-147.65;100.00;57646.63;10487336;28;20094;-77
2023/08/12 07:11:46;;;;;;;16.70;12.03;;;;;;;-147.65;100.00;57646.63;10486774;28;20058;-77
2023/08/12 07:16:47;;;;;;;15.27;11.23;;;;;;;-147.65;100.00;57646.63;10485954;28;20048;-77
2023/08/12 07:21:47;;;;;;;27.95;20.90;;;;;;;-147.65;100.00;57646.63;10487929;28;20127;-76
2023/08/12 07:26:48;;;;;;;12.43;9.27;;;;;;;-147.65;100.00;57646.63;10466800;28;20068;-76
2023/08/12 07:31:48;;;;;;;13.37;9.30;;;;;;;-147.65;100.00;57646.63;10484418;28;20127;-77
2023/08/12 07:36:49;;;;;;;11.37;7.50;;;;;;;-147.65;100.00;57646.63;10487707;28;20123;-77
2023/08/12 07:41:49;;;;;;;8.57;5.90;;;;;;;-147.65;100.00;57646.63;10485078;28;20073;-78
2023/08/12 07:46:50;;;;;;;8.35;5.10;;;;;;;-147.65;100.00;57646.63;10484166;28;20036;-77
2023/08/12 07:51:50;;;;;;;10.60;5.72;;;;;;;-147.65;100.00;57646.63;10484014;28;20044;-81
2023/08/12 07:56:53;;;;;;;8.50;5.40;;;;;;;-147.65;100.00;57646.63;10485341;28;20040;-76
2023/08/12 08:01:53;;;;;;;7.43;5.03;;;;;;;-147.65;100.00;57646.63;10485747;28;20130;-78
2023/08/12 08:06:54;;;;;;;10.93;6.47;;;;;;;-147.65;100.00;57646.63;10509579;28;20124;-78
2023/08/12 08:11:54;;;;;;;10.23;5.60;;;;;;;-147.65;100.00;57646.63;10482670;28;20451;-76
2023/08/12 08:16:55;;;;;;;6.32;3.90;;;;;;;-147.65;100.00;57646.63;10477865;28;20047;-77
2023/08/12 08:21:57;;;;;;;9.07;5.67;;;;;;;-147.65;100.00;57646.63;10464913;28;20040;-77
2023/08/12 08:26:57;;;;;;;15.43;11.60;;;;;;;-147.65;100.00;57646.63;10482792;28;20032;-76
2023/08/12 08:31:58;;;;;;;10.13;6.88;;;;;;;-147.65;100.00;57646.63;10482739;28;20119;-76
2023/08/12 08:36:58;;;;;;;6.70;4.87;;;;;;;-147.65;100.00;57646.63;10483302;28;20036;-77
2023/08/12 08:41:59;;;;;;;9.03;4.23;;;;;;;-147.65;100.00;57646.63;10481779;28;20040;-77
2023/08/12 08:46:59;;;;;;;7.00;3.70;;;;;;;-147.65;100.00;57646.63;10500917;28;20477;-77
2023/08/12 08:52:00;;;;;;;4.37;2.80;;;;;;;-147.65;100.00;57646.63;10499058;28;20124;-77
2023/08/12 08:57:01;;;;;;;4.73;2.67;;;;;;;-147.65;100.00;57646.63;10470954;28;20128;-77
2023/08/12 09:02:01;;;;;;;4.33;1.80;;;;;;;-147.65;100.00;57646.63;10481942;28;20550;-77
2023/08/12 09:07:02;;;;;;;4.70;2.80;;;;;;;-147.65;100.00;57646.63;10483107;28;20422;-77
2023/08/12 09:12:06;;;;;;;3.90;2.47;;;;;;;-147.65;100.00;57646.63;10482478;28;20045;-77
2023/08/12 09:17:06;;;;;;;6.32;2.80;;;;;;;-147.65;100.00;57646.63;10495449;28;20032;-77
2023/08/12 09:22:08;;;;;;;3.87;2.10;;;;;;;-147.65;100.00;57646.63;10516563;28;20036;-77
2023/08/12 09:27:09;;;;;;;2.28;1.48;;;;;;;-147.65;100.00;57646.63;10486267;28;20064;-77
2023/08/12 09:32:18;;;;;;;4.67;1.50;;;;;;;-147.65;100.00;57646.63;10491559;28;20033;-77
2023/08/12 09:37:20;;;;;;;3.30;1.80;;;;;;;-147.65;100.00;57646.63;10489658;28;20426;-77
2023/08/12 09:42:20;;;;;;;2.58;1.10;;;;;;;-147.65;100.00;57646.63;10474518;28;20395;-78
2023/08/12 09:47:25;;;;;;;2.20;1.60;;;;;;;-147.65;100.00;57646.63;10490804;28;20068;-78
2023/08/12 09:52:25;;;;;;;3.20;1.38;;;;;;;-147.65;100.00;57646.63;10488486;28;20036;-78
2023/08/12 09:57:26;;;;;;;2.53;0.83;;;;;;;-147.65;100.00;57646.63;10506479;28;20048;-78
2023/08/12 10:02:27;;;;;;;4.77;1.10;;;;;;;-147.65;100.00;57646.63;10523968;28;20040;-77
2023/08/12 10:07:27;;;;;;;5.63;3.17;;;;;;;-147.65;100.00;57646.63;10488774;28;20407;-77
2023/08/12 10:12:28;;;;;;;4.30;2.53;;;;;;;-147.65;100.00;57646.63;10504971;28;20114;-77
2023/08/12 10:17:28;;;;;;;3.17;1.80;;;;;;;-147.65;100.00;57646.63;10489553;28;20040;-77
2023/08/12 10:22:30;;;;;;;2.77;1.87;;;;;;;-147.65;100.00;57646.63;10504754;28;20158;-76
2023/08/12 10:27:30;;;;;;;2.63;1.53;;;;;;;-147.65;100.00;57646.63;10504499;28;20036;-77
2023/08/12 10:32:31;;;;;;;4.90;2.27;;;;;;;-147.65;100.00;57646.63;10506073;28;20391;-76
2023/08/12 10:37:33;;;;;;;3.60;1.73;;;;;;;-147.65;100.00;57646.63;10503856;28;20500;-76
2023/08/12 10:42:43;;;;;;;3.35;2.10;;;;;;;-147.65;100.00;57646.63;10471025;28;20028;-76
2023/08/12 10:47:48;;;;;;;5.85;3.30;;;;;;;-147.65;100.00;57646.63;10487629;28;20178;-76
2023/08/12 10:52:53;;;;;;;7.20;3.85;;;;;;;-147.65;100.00;57646.63;10487637;28;20048;-77
2023/08/12 10:57:54;;;;;;;5.75;4.03;;;;;;;-147.65;100.00;57646.63;10486943;28;20028;-77
2023/08/12 11:02:56;;;;;;;6.45;4.72;;;;;;;-147.65;100.00;57646.63;10487507;28;20032;-77
2023/08/12 11:07:58;;;;;;;6.90;4.93;;;;;;;-147.65;100.00;57646.63;10486576;28;20040;-78
2023/08/12 11:12:59;;;;;;;7.50;5.45;;;;;;;-147.65;100.00;57646.63;10487920;28;20056;-78
2023/08/12 11:18:03;;;;;;;7.40;5.60;;;;;;;-147.65;100.00;57646.63;10485854;28;20033;-78
2023/08/12 11:23:04;;;;;;;8.50;7.47;;;;;;;-147.65;100.00;57646.63;10485657;28;20037;-78
2023/08/12 11:28:05;;;;;;;8.55;6.28;;;;;;;-147.65;100.00;57646.63;10487403;28;20036;-78
2023/08/12 11:33:06;;;;;;;6.93;6.10;;;;;;;-147.65;100.00;57646.63;10487143;28;20040;-78
2023/08/12 11:38:07;;;;;;;5.75;4.32;;;;;;;-147.65;100.00;57646.63;10484052;28;20029;-78
2023/08/12 11:43:08;;;;;;;5.37;4.33;;;;;;;-147.65;100.00;57646.63;10486856;28;20036;-78
2023/08/12 11:48:09;;;;;;;5.10;4.03;;;;;;;-147.65;100.00;57646.63;10486954;28;20767;-78
2023/08/12 11:53:10;;;;;;;8.57;4.65;;;;;;;-147.65;100.00;57646.63;10484661;28;20501;-78
2023/08/12 11:58:11;;;;;;;6.53;5.37;;;;;;;-147.65;100.00;57646.63;10484111;28;20044;-78
2023/08/12 12:03:11;;;;;;;11.90;7.55;;;;;;;-147.65;100.00;57646.63;10487127;28;20039;-78
2023/08/12 12:08:13;;;;;;;11.03;8.37;;;;;;;-147.65;100.00;57646.63;10485216;27;20476;-77
2023/08/12 12:13:14;;;;;;;;;;;;;;;-147.65;100.00;57646.63;10518633;28;20024;-77
2023/08/12 12:18:15;;;;;;;13.35;10.18;;;;;;;-147.65;100.00;57646.63;10484699;28;19917;-77
2023/08/12 12:23:15;;;;;;;12.63;10.90;;;;;;;-147.65;100.00;57646.63;10451254;28;20047;-78
2023/08/12 12:28:16;;;;;;;11.17;7.53;;;;;;;-147.65;100.00;57646.63;10484425;28;20118;-78
2023/08/12 12:33:16;;;;;;;9.23;7.20;;;;;;;-147.65;100.00;57646.63;10483707;28;20284;-78
2023/08/12 12:38:17;;;;;;;7.83;6.37;;;;;;;-147.65;100.00;57646.63;10469146;28;20653;-80
2023/08/12 12:43:17;;;;;;;8.63;6.73;;;;;;;-147.65;100.00;57646.63;10492757;28;20127;-80
2023/08/12 12:48:18;;;;;;;9.83;5.90;;;;;;;-147.65;100.00;57646.63;10482400;28;20066;-77
2023/08/12 12:53:19;;;;;;;8.63;5.10;;;;;;;-147.65;100.00;57646.63;10499222;28;20039;-77
2023/08/12 12:58:23;;;;;;;10.50;5.30;;;;;;;-147.65;100.00;57646.63;10483739;28;20037;-77
2023/08/12 13:03:23;;;;;;;6.22;4.47;;;;;;;-147.65;100.00;57646.63;10483813;28;20028;-78
2023/08/12 13:08:24;;;;;;;7.27;5.17;;;;;;;-147.65;100.00;57646.63;10515001;28;20541;-78
2023/08/12 13:13:25;;;;;;;6.32;4.22;;;;;;;-147.65;100.00;57646.63;10481091;28;20120;-77
2023/08/12 13:18:25;;;;;;;8.17;4.37;;;;;;;-147.65;100.00;57646.63;10472882;28;20523;-77
2023/08/12 13:23:26;;;;;;;7.90;4.27;;;;;;;-147.65;100.00;57646.63;10454418;28;20064;-77
2023/08/12 13:28:27;;;;;;;10.97;4.50;;;;;;;-147.65;100.00;57646.63;10482442;28;20117;-77
2023/08/12 13:33:28;;;;;;;6.22;2.97;;;;;;;-147.65;100.00;57646.63;10480440;28;20032;-77
2023/08/12 13:38:28;;;;;;;4.73;2.83;;;;;;;-147.65;100.00;57646.63;10479682;28;20052;-77
2023/08/12 13:43:30;;;;;;;7.00;2.63;;;;;;;-147.65;100.00;57646.63;10514597;28;20060;-78
2023/08/12 13:48:30;;;;;;;7.53;3.35;;;;;;;-147.65;100.00;57646.63;10481533;28;20043;-77
2023/08/12 13:53:31;;;;;;;7.83;4.00;;;;;;;-147.65;100.00;57646.63;10482502;28;20035;-78
2023/08/12 13:58:31;;;;;;;6.37;2.80;;;;;;;-147.65;100.00;57646.63;10482753;28;20040;-79
2023/08/12 14:03:33;;;;;;;8.27;3.50;;;;;;;-147.65;100.00;57646.63;10481556;28;20025;-77
2023/08/12 14:08:33;;;;;;;12.10;3.38;;;;;;;-147.65;100.00;57646.63;10467410;28;20502;-78
2023/08/12 14:13:34;;;;;;;8.63;4.03;;;;;;;-147.65;100.00;57646.63;10482663;28;20052;-78
2023/08/12 14:18:34;;;;;;;8.20;3.63;;;;;;;-147.65;100.00;57646.63;10521311;28;20039;-78
2023/08/12 14:23:35;;;;;;;6.17;3.70;;;;;;;-147.65;100.00;57646.63;10490339;27;20037;-77
2023/08/12 14:28:35;;;;;;;8.43;3.77;;;;;;;-147.65;100.00;57646.63;10488574;28;20181;-79
2023/08/12 14:33:37;;;;;;;12.20;3.50;;;;;;;-147.65;100.00;57646.63;10489045;28;20093;-78
2023/08/12 14:38:37;;;;;;;6.43;3.25;;;;;;;-147.65;100.00;57646.63;10489441;28;20488;-78
2023/08/12 14:43:38;;;;;;;7.03;3.50;;;;;;;-147.65;100.00;57646.63;10521570;28;20209;-78
2023/08/12 14:48:38;;;;;;;6.93;3.13;;;;;;;-147.65;100.00;57646.63;10486890;28;20029;-78
2023/08/12 14:53:39;;;;;;;13.33;2.90;;;;;;;-147.65;100.00;57646.63;10486094;28;20041;-77
2023/08/12 14:58:39;;;;;;;7.37;2.57;;;;;;;-147.65;100.00;57646.63;10520510;28;20025;-80
2023/08/12 15:03:40;;;;;;;6.03;2.53;;;;;;;-147.65;100.00;57646.63;10486967;28;20087;-78
2023/08/12 15:08:41;;;;;;;6.10;2.70;;;;;;;-147.65;100.00;57646.63;10486665;28;20040;-79
2023/08/12 15:13:42;;;;;;;5.72;1.63;;;;;;;-147.65;100.00;57646.63;10473411;28;20518;-79
2023/08/12 15:18:42;;;;;;;5.63;2.67;;;;;;;-147.65;100.00;57646.63;10457956;28;20039;-78
2023/08/12 15:23:43;;;;;;;6.27;2.10;;;;;;;-147.65;100.00;57646.63;10486429;28;20040;-78
2023/08/12 15:28:43;;;;;;;3.63;1.87;;;;;;;-147.65;100.00;57646.63;10479205;28;20048;-87
2023/08/12 15:33:44;;;;;;;7.67;2.33;;;;;;;-147.65;100.00;57646.63;10451681;28;20047;-82
2023/08/12 15:38:46;;;;;;;9.37;2.33;;;;;;;-147.65;100.00;57646.63;10453022;28;20484;-81
2023/08/12 15:43:47;;;;;;;17.23;2.58;;;;;;;-147.65;100.00;57646.63;10405591;28;20037;-81
2023/08/12 15:48:47;;;;;;;11.80;2.73;;;;;;;-147.65;100.00;57646.63;10439847;28;20384;-83
2023/08/12 15:53:48;;;;;;;8.13;2.77;;;;;;;-147.65;100.00;57646.63;10440092;28;20037;-80
2023/08/12 15:58:48;;;;;;;4.33;1.67;;;;;;;-147.65;100.00;57646.63;10444262;28;20124;-80
2023/08/12 16:03:49;;;;;;;5.37;2.57;;;;;;;-147.65;100.00;57646.63;10439515;28;20051;-79
2023/08/12 16:08:50;;;;;;;6.47;1.70;;;;;;;-147.65;100.00;57646.63;10437337;28;20041;-81
2023/08/12 16:13:50;;;;;;;6.97;2.95;;;;;;;-147.65;100.00;57646.63;10430773;28;20041;-80
2023/08/12 16:18:51;;;;;;;6.67;1.93;;;;;;;-147.65;100.00;57646.63;10436653;28;20032;-80
2023/08/12 16:23:52;;;;;;;4.50;1.77;;;;;;;-147.65;100.00;57646.63;10440939;28;20036;-80
2023/08/12 16:28:52;;;;;;;8.30;3.17;;;;;;;-147.65;100.00;57646.63;10417961;28;20045;-81
2023/08/12 16:33:52;;;;;;;4.73;1.73;;;;;;;-147.65;100.00;57646.63;10440809;28;20072;-80
2023/08/12 16:38:53;;;;;;;6.30;2.20;;;;;;;-147.65;100.00;57646.63;10437507;28;20041;-81
2023/08/12 16:43:54;;;;;;;11.27;1.73;;;;;;;-147.65;100.00;57646.63;10441818;28;20036;-82
2023/08/12 16:48:54;;;;;;;6.23;2.20;;;;;;;-147.65;100.00;57646.63;10439069;28;20047;-82
2023/08/12 16:53:55;;;;;;;5.87;2.60;;;;;;;-147.65;100.00;57646.63;10483269;28;20043;-81
2023/08/12 16:58:55;;;;;;;4.57;1.80;;;;;;;-147.65;100.00;57646.63;10483691;28;20041;-81
2023/08/12 17:03:56;;;;;;;8.03;2.23;;;;;;;-147.65;100.00;57646.63;10483308;28;20054;-81
2023/08/12 17:08:56;;;;;;;5.53;3.47;;;;;;;-147.65;100.00;57646.63;10481230;28;20044;-81
2023/08/12 17:13:57;;;;;;;9.43;3.23;;;;;;;-147.65;100.00;57646.63;10480004;28;20774;-80
2023/08/12 17:18:57;;;;;;;8.17;2.43;;;;;;;-147.65;100.00;57646.63;10475851;28;20093;-80
2023/08/12 17:23:58;;;;;;;11.00;4.60;;;;;;;-147.65;100.00;57646.63;10511753;28;20047;-80
2023/08/12 17:28:58;;;;;;;34.77;28.77;;;;;;;-147.65;100.00;57646.63;10452226;28;20043;-81
2023/08/12 17:33:59;;;;;;;9.67;4.87;;;;;;;-147.65;100.00;57646.63;10479878;28;20049;-81
2023/08/12 17:38:59;;;;;;;6.07;2.40;;;;;;;-147.65;100.00;57646.63;10483455;28;20045;-81
2023/08/12 17:44:00;;;;;;;5.80;2.03;;;;;;;-147.65;100.00;57646.63;10465450;28;20040;-76
2023/08/12 17:49:01;;;;;;;6.00;2.80;;;;;;;-147.65;100.00;57646.63;10484502;28;20127;-78
2023/08/12 17:54:01;;;;;;;10.70;3.42;;;;;;;-147.65;100.00;57646.63;10463570;28;20040;-78
2023/08/12 17:59:02;;;;;;;19.55;3.58;;;;;;;-147.65;100.00;57646.63;10486431;28;20522;-78
2023/08/12 18:04:02;;;;;;;16.17;3.90;;;;;;;-147.65;100.00;57646.63;10485601;28;20185;-81
2023/08/12 18:09:03;;;;;;;5.88;3.45;;;;;;;-147.65;100.00;57646.63;10476194;28;20036;-81
2023/08/12 18:14:04;;;;;;;9.23;3.10;;;;;;;-147.65;100.00;57646.63;10474337;28;20044;-78
2023/08/12 18:19:04;;;;;;;7.88;3.83;;;;;;;-147.65;100.00;57646.63;10476688;28;20037;-77
2023/08/12 18:24:05;;;;;;;8.02;3.70;;;;;;;-147.65;100.00;57646.63;10484949;28;20049;-77
2023/08/12 18:29:06;;;;;;;28.13;4.80;;;;;;;-147.65;100.00;57646.63;10440920;28;20389;-77
2023/08/12 18:34:06;;;;;;;10.40;3.75;;;;;;;-147.65;100.00;57646.63;10419269;28;20052;-78
2023/08/12 18:39:07;;;;;;;12.30;4.68;;;;;;;-147.65;100.00;57646.63;10439505;28;20068;-79
2023/08/12 18:44:07;;;;;;;12.20;5.50;;;;;;;-147.65;100.00;57646.63;10438845;28;20126;-80
2023/08/12 18:49:08;;;;;;;12.93;4.28;;;;;;;-147.65;100.00;57646.63;10441362;28;20045;-80
2023/08/12 18:54:08;;;;;;;10.75;4.45;;;;;;;-147.65;100.00;57646.63;10477979;28;20122;-79
2023/08/12 18:59:09;;;;;;;10.52;6.25;;;;;;;-147.65;100.00;57646.63;10475145;28;20142;-78
2023/08/12 19:04:10;;;;;;;10.65;5.55;;;;;;;-147.65;100.00;57646.63;10472921;28;20024;-79
2023/08/12 19:09:11;;;;;;;12.90;6.30;;;;;;;-147.65;100.00;57646.63;10475776;28;20373;-79
2023/08/12 19:14:14;;;;;;;12.13;6.82;;;;;;;-147.65;100.00;57646.63;10484790;28;20121;-78
2023/08/12 19:19:15;;;;;;;9.02;5.70;;;;;;;-147.65;100.00;57646.63;10459380;28;20124;-78
2023/08/12 19:24:16;;;;;;;13.73;5.80;;;;;;;-147.65;100.00;57646.63;10470596;28;20036;-78
2023/08/12 19:29:17;;;;;;;10.93;6.13;;;;;;;-147.65;100.00;57646.63;10453493;28;20704;-79
2023/08/12 19:34:18;;;;;;;10.40;5.47;;;;;;;-147.65;100.00;57646.63;10436578;28;20037;-78
2023/08/12 19:39:18;;;;;;;14.75;7.97;;;;;;;-147.65;100.00;57646.63;10457918;28;20465;-77
2023/08/12 19:44:19;;;;;;;14.02;6.30;;;;;;;-147.65;100.00;57646.63;10433153;28;20048;-78
2023/08/12 19:49:19;;;;;;;16.75;8.35;;;;;;;-147.65;100.00;57646.63;10432466;28;20469;-78
2023/08/12 19:54:20;;;;;;;11.73;5.70;;;;;;;-147.65;100.00;57646.63;10430018;28;20085;-78
2023/08/12 19:59:21;;;;;;;15.85;7.22;;;;;;;-147.65;100.00;57646.63;10433939;28;20044;-80
2023/08/12 20:04:21;;;;;;;14.18;6.32;;;;;;;-147.65;100.00;57646.63;10435237;28;20136;-80
2023/08/12 20:09:23;;;;;;;14.57;6.88;;;;;;;-147.65;100.00;57646.63;10427253;28;20121;-80
2023/08/12 20:14:24;;;;;;;14.57;6.32;;;;;;;-147.65;100.00;57646.63;10405696;28;20038;-80
2023/08/12 20:19:24;;;;;;;11.60;6.32;;;;;;;-147.65;100.00;57646.63;10419968;28;20073;-80
2023/08/12 20:24:25;;;;;;;17.98;6.88;;;;;;;-147.65;100.00;57646.63;10452838;28;20040;-80
2023/08/12 20:29:25;;;;;;;11.77;6.72;;;;;;;-147.65;100.00;57646.63;10484301;28;20102;-81
2023/08/12 20:34:26;;;;;;;12.80;8.27;;;;;;;-147.65;100.00;57646.63;10482140;28;20045;-80
2023/08/12 20:39:27;;;;;;;14.15;7.32;;;;;;;-147.65;100.00;57646.63;10462932;28;20052;-80
2023/08/12 20:44:27;;;;;;;12.68;7.53;;;;;;;-147.65;100.00;57646.63;10422350;28;20060;-80
2023/08/12 20:49:28;;;;;;;14.35;7.57;;;;;;;-147.65;100.00;57646.63;10428504;28;20120;-81
2023/08/12 20:54:28;;;;;;;14.90;8.55;;;;;;;-147.65;100.00;57646.63;10439974;28;20049;-80
2023/08/12 20:59:29;;;;;;;15.82;8.70;;;;;;;-147.65;100.00;57646.63;10438780;28;20111;-80
2023/08/12 21:04:29;;;;;;;19.10;6.80;;;;;;;-147.65;100.00;57646.63;10417137;28;20045;-81
2023/08/12 21:09:31;;;;;;;15.57;8.23;;;;;;;-147.65;100.00;57646.63;10423187;28;20170;-80
2023/08/12 21:14:31;;;;;;;17.90;10.50;;;;;;;-147.65;100.00;57646.63;10424505;28;20041;-79
2023/08/12 21:19:32;;;;;;;17.02;8.55;;;;;;;-147.65;100.00;57646.63;10414159;28;20029;-82
2023/08/12 21:24:32;;;;;;;24.27;8.50;;;;;;;-147.65;100.00;57646.63;10432910;28;20045;-80
2023/08/12 21:29:33;;;;;;;16.08;8.07;;;;;;;-147.65;100.00;57646.63;10412623;28;20489;-80
2023/08/12 21:34:33;;;;;;;17.80;8.30;;;;;;;-147.65;100.00;57646.63;10448123;28;20120;-78
2023/08/12 21:39:34;;;;;;;21.13;10.07;;;;;;;-147.65;100.00;57646.63;10431753;28;20039;-79
2023/08/12 21:44:35;;;;;;;12.85;8.15;;;;;;;-147.65;100.00;57646.63;10462519;28;20559;-79
2023/08/12 21:49:36;;;;;;;15.00;8.68;;;;;;;-147.65;100.00;57646.63;10446231;28;20040;-79
2023/08/12 21:54:36;;;;;;;18.88;8.00;;;;;;;-147.65;100.00;57646.63;10430902;28;20033;-79
2023/08/12 21:59:37;;;;;;;22.75;10.75;;;;;;;-147.65;100.00;57646.63;10448976;28;20043;-79
2023/08/12 22:04:37;;;;;;;15.32;6.70;;;;;;;-147.65;100.00;57646.63;10442474;28;20045;-79
2023/08/12 22:09:38;;;;;;;20.20;7.43;;;;;;;-147.65;100.00;57646.63;10445618;28;20080;-79
2023/08/12 22:14:38;;;;;;;18.92;8.25;;;;;;;-147.65;100.00;57646.63;10425798;28;21251;-78